Time;durP1;ratioP1;P1;durP2;ratioP2;P2;SDS_P1;SDS_P2;PMS_P1;PMS_P2;Temp;Humidity;BMP_temperature;BMP_pressure;BME280_temperature;BME280_humidity;BME280_pressure;Samples;Min_cycle;Max_cycle;Signal;HPM_P1;HPM_P2
2021/01/23 00:01:19;;;;;;;0.50;0.50;;;3.90;1.00;;;;;;5020221;28;20215;-76
2021/01/23 00:03:46;;;;;;;0.75;0.75;;;3.90;1.00;;;;;;5028617;28;20717;-77
2021/01/23 00:06:13;;;;;;;0.63;0.63;;;3.90;1.00;;;;;;5022294;28;20240;-75
2021/01/23 00:08:40;;;;;;;0.70;0.60;;;3.70;1.00;;;;;;5022380;28;20219;-75
2021/01/23 00:11:08;;;;;;;0.60;0.60;;;3.70;1.00;;;;;;5025529;28;20309;-75
2021/01/23 00:13:36;;;;;;;0.60;0.60;;;3.70;1.00;;;;;;5017929;28;20416;-79
2021/01/23 00:16:04;;;;;;;0.70;0.70;;;3.70;1.00;;;;;;5023462;28;20230;-76
2021/01/23 00:18:31;;;;;;;0.68;0.68;;;3.70;1.00;;;;;;5026884;28;20297;-76
2021/01/23 00:20:59;;;;;;;0.70;0.70;;;3.70;1.00;;;;;;5024145;28;20214;-77
2021/01/23 00:23:26;;;;;;;0.80;0.80;;;3.60;1.00;;;;;;5026154;28;20860;-76
2021/01/23 00:25:53;;;;;;;0.90;0.90;;;3.50;1.00;;;;;;5016558;28;20236;-77
2021/01/23 00:28:21;;;;;;;0.80;0.80;;;3.50;1.00;;;;;;5021645;28;20279;-76
2021/01/23 00:30:48;;;;;;;0.75;0.75;;;3.50;1.00;;;;;;5024667;28;20219;-75
2021/01/23 00:33:15;;;;;;;0.88;0.80;;;3.50;1.00;;;;;;5024917;28;20210;-79
2021/01/23 00:35:43;;;;;;;0.80;0.80;;;3.50;1.00;;;;;;5021229;28;20241;-76
2021/01/23 00:38:10;;;;;;;1.13;0.90;;;3.50;1.00;;;;;;5025393;28;20243;-76
2021/01/23 00:40:37;;;;;;;1.08;0.77;;;3.60;1.00;;;;;;5044491;28;20267;-76
2021/01/23 00:43:04;;;;;;;0.70;0.70;;;3.60;1.00;;;;;;5026393;28;20226;-75
2021/01/23 00:45:33;;;;;;;0.80;0.75;;;3.60;1.00;;;;;;5021168;28;20234;-76
2021/01/23 00:48:07;;;;;;;0.70;0.70;;;3.60;1.00;;;;;;5020083;28;20211;-76
2021/01/23 00:50:35;;;;;;;2.05;0.70;;;3.60;1.00;;;;;;5019847;28;20209;-74
2021/01/23 00:53:03;;;;;;;0.80;0.80;;;3.60;1.00;;;;;;5025782;28;20320;-75
2021/01/23 00:55:30;;;;;;;0.60;0.60;;;3.60;1.00;;;;;;5013497;28;20312;-76
2021/01/23 00:57:57;;;;;;;0.70;0.70;;;3.50;1.00;;;;;;5021705;28;20280;-76
2021/01/23 01:00:25;;;;;;;1.20;0.80;;;3.50;1.00;;;;;;5020856;28;20224;-76
2021/01/23 01:02:53;;;;;;;0.65;0.65;;;3.40;1.00;;;;;;5022725;28;20560;-75
2021/01/23 01:05:20;;;;;;;0.60;0.60;;;3.40;1.00;;;;;;5021383;28;20223;-75
2021/01/23 01:07:47;;;;;;;1.20;1.10;;;3.40;1.00;;;;;;5026061;28;20280;-76
2021/01/23 01:10:15;;;;;;;0.80;0.80;;;3.40;1.00;;;;;;5027075;28;20205;-76
2021/01/23 01:12:42;;;;;;;0.75;0.75;;;3.40;1.00;;;;;;5016191;28;20221;-75
2021/01/23 01:15:10;;;;;;;0.68;0.68;;;3.30;1.00;;;;;;5027521;28;20214;-77
2021/01/23 01:17:37;;;;;;;0.77;0.65;;;3.40;1.00;;;;;;5025557;28;20683;-77
2021/01/23 01:20:10;;;;;;;0.75;0.75;;;3.40;1.00;;;;;;5017733;28;20211;-76
2021/01/23 01:22:38;;;;;;;0.80;0.80;;;3.50;1.00;;;;;;5013075;28;20218;-79
2021/01/23 01:25:06;;;;;;;0.80;0.80;;;3.50;1.00;;;;;;5017828;28;20219;-77
2021/01/23 01:27:33;;;;;;;0.90;0.90;;;3.50;1.00;;;;;;5022871;28;20218;-75
2021/01/23 01:30:00;;;;;;;1.00;1.00;;;3.60;1.00;;;;;;5026112;28;20556;-75
2021/01/23 01:32:28;;;;;;;0.90;0.90;;;3.40;1.00;;;;;;5018612;28;20693;-76
2021/01/23 01:34:55;;;;;;;0.60;0.60;;;3.50;1.00;;;;;;5026583;28;20222;-78
2021/01/23 01:37:23;;;;;;;0.73;0.70;;;3.40;1.00;;;;;;5025325;28;20237;-75
2021/01/23 01:39:50;;;;;;;0.63;0.60;;;3.50;1.00;;;;;;5026629;28;20223;-77
2021/01/23 01:42:18;;;;;;;0.90;0.77;;;3.60;1.00;;;;;;5021771;28;20740;-76
2021/01/23 01:44:45;;;;;;;0.68;0.68;;;3.70;1.00;;;;;;5025208;28;20627;-75
2021/01/23 01:47:12;;;;;;;0.70;0.60;;;3.80;1.00;;;;;;5026765;28;20242;-79
2021/01/23 01:49:40;;;;;;;0.60;0.60;;;3.80;1.00;;;;;;5025359;28;20224;-77
2021/01/23 01:52:07;;;;;;;0.65;0.65;;;3.90;1.00;;;;;;5019580;28;20218;-77
2021/01/23 01:54:36;;;;;;;0.70;0.70;;;3.90;1.00;;;;;;5027540;28;20215;-76
2021/01/23 01:57:04;;;;;;;0.60;0.60;;;3.90;1.00;;;;;;5020742;28;20246;-77
2021/01/23 01:59:31;;;;;;;0.70;0.70;;;3.90;1.00;;;;;;5026953;28;20338;-76
2021/01/23 02:02:15;;;;;;;0.70;0.70;;;3.90;1.00;;;;;;5022796;28;20220;-78
2021/01/23 02:04:50;;;;;;;0.68;0.68;;;3.90;1.00;;;;;;5021053;28;20208;-77
2021/01/23 02:07:28;;;;;;;0.80;0.80;;;3.90;1.00;;;;;;5030226;28;20696;-76
2021/01/23 02:10:10;;;;;;;1.30;0.90;;;3.80;1.00;;;;;;5028855;28;20673;-76
2021/01/23 02:12:48;;;;;;;0.90;0.90;;;3.80;1.00;;;;;;5029613;28;21030;-76
2021/01/23 02:15:20;;;;;;;0.88;0.88;;;3.90;1.00;;;;;;5028763;28;20222;-78
2021/01/23 02:17:57;;;;;;;0.90;0.90;;;3.80;1.00;;;;;;5031224;28;20218;-76
2021/01/23 02:20:45;;;;;;;0.80;0.80;;;3.80;1.00;;;;;;5030097;28;20277;-76
2021/01/23 02:23:17;;;;;;;1.20;1.10;;;3.90;1.00;;;;;;5028218;28;20214;-77
2021/01/23 02:26:03;;;;;;;1.00;1.00;;;3.90;1.00;;;;;;5032097;28;20289;-79
2021/01/23 02:28:51;;;;;;;0.90;0.90;;;4.00;1.00;;;;;;5024955;28;20218;-77
2021/01/23 02:31:22;;;;;;;0.90;0.90;;;4.00;1.00;;;;;;5025223;28;20221;-79
2021/01/23 02:33:52;;;;;;;0.80;0.80;;;4.00;1.00;;;;;;5026141;28;20213;-76
2021/01/23 02:36:22;;;;;;;1.00;0.90;;;4.00;1.00;;;;;;5029128;28;20241;-77
2021/01/23 02:38:50;;;;;;;0.60;0.60;;;4.00;1.00;;;;;;5031044;28;20295;-76
2021/01/23 02:41:18;;;;;;;0.82;0.82;;;4.00;1.00;;;;;;5018650;28;20353;-77
2021/01/23 02:43:46;;;;;;;0.80;0.80;;;4.10;1.00;;;;;;5026475;28;20215;-77
2021/01/23 02:46:15;;;;;;;0.80;0.80;;;4.10;1.00;;;;;;5026205;28;20792;-75
2021/01/23 02:48:44;;;;;;;1.20;0.85;;;4.10;1.00;;;;;;5029554;28;20574;-76
2021/01/23 02:51:18;;;;;;;0.80;0.80;;;4.10;1.00;;;;;;5024425;28;20219;-76
2021/01/23 02:53:49;;;;;;;0.70;0.70;;;4.20;1.00;;;;;;5025861;28;20837;-77
2021/01/23 02:56:24;;;;;;;0.93;0.93;;;4.30;1.00;;;;;;5029133;28;20246;-76
2021/01/23 02:58:53;;;;;;;1.13;0.80;;;4.20;1.00;;;;;;5020928;28;20232;-77
2021/01/23 03:01:23;;;;;;;0.93;0.80;;;4.20;1.00;;;;;;5028194;28;20215;-77
2021/01/23 03:03:54;;;;;;;1.20;1.10;;;4.30;1.00;;;;;;5021323;28;20688;-77
2021/01/23 03:06:23;;;;;;;0.90;0.90;;;4.30;1.00;;;;;;5029602;28;20282;-78
2021/01/23 03:08:50;;;;;;;0.70;0.70;;;4.40;1.00;;;;;;5032295;28;20682;-76
2021/01/23 03:11:17;;;;;;;1.50;0.90;;;4.40;1.00;;;;;;5027647;28;20447;-76
2021/01/23 03:13:45;;;;;;;1.10;1.10;;;4.40;1.00;;;;;;5027252;28;20294;-76
2021/01/23 03:16:12;;;;;;;0.85;0.85;;;4.30;1.00;;;;;;5025490;28;20230;-76
2021/01/23 03:18:40;;;;;;;0.80;0.80;;;4.30;1.00;;;;;;5023824;28;20266;-76
2021/01/23 03:21:08;;;;;;;1.00;0.80;;;4.30;1.00;;;;;;5031288;28;20206;-77
2021/01/23 03:23:35;;;;;;;1.05;1.00;;;4.30;1.00;;;;;;5027641;28;20223;-78
2021/01/23 03:26:03;;;;;;;1.10;0.90;;;4.40;1.00;;;;;;5031067;28;20234;-78
2021/01/23 03:28:30;;;;;;;0.80;0.80;;;4.40;1.00;;;;;;5029756;28;20219;-76
2021/01/23 03:30:57;;;;;;;0.93;0.85;;;4.40;1.00;;;;;;5027676;28;20652;-76
2021/01/23 03:33:24;;;;;;;0.70;0.70;;;4.30;1.00;;;;;;5026241;28;20471;-76
2021/01/23 03:35:51;;;;;;;0.75;0.75;;;4.20;1.00;;;;;;5026004;28;20263;-76
2021/01/23 03:38:19;;;;;;;0.70;0.70;;;4.30;1.00;;;;;;5030286;28;20231;-76
2021/01/23 03:40:47;;;;;;;0.82;0.80;;;4.30;1.00;;;;;;5029240;28;20305;-77
2021/01/23 03:43:14;;;;;;;0.90;0.70;;;4.30;1.00;;;;;;5027782;28;20216;-77
2021/01/23 03:45:41;;;;;;;0.60;0.60;;;4.30;1.00;;;;;;5021309;28;20242;-77
2021/01/23 03:48:09;;;;;;;0.80;0.80;;;4.30;1.00;;;;;;5030342;28;20638;-76
2021/01/23 03:50:36;;;;;;;0.80;0.70;;;4.20;1.00;;;;;;5025213;28;20576;-76
2021/01/23 03:53:03;;;;;;;0.68;0.68;;;4.30;1.00;;;;;;5022369;28;20262;-77
2021/01/23 03:55:31;;;;;;;0.70;0.70;;;4.30;1.00;;;;;;5029840;28;20243;-76
2021/01/23 03:57:58;;;;;;;0.70;0.70;;;4.30;1.00;;;;;;5027159;28;20531;-74
2021/01/23 04:00:25;;;;;;;0.77;0.77;;;4.30;1.00;;;;;;5031273;28;20218;-78
2021/01/23 04:02:53;;;;;;;0.77;0.77;;;4.40;1.00;;;;;;5028660;28;20223;-77
2021/01/23 04:05:20;;;;;;;0.85;0.85;;;4.40;99.90;;;;;;5019201;28;20244;-76
2021/01/23 04:07:47;;;;;;;0.95;0.90;;;4.40;99.90;;;;;;5029305;28;20218;-77
2021/01/23 04:10:14;;;;;;;0.77;0.77;;;4.50;99.90;;;;;;5024540;28;20214;-77
2021/01/23 04:12:42;;;;;;;1.30;0.60;;;4.40;99.90;;;;;;5020960;28;20227;-76
2021/01/23 04:15:10;;;;;;;0.75;0.75;;;4.30;99.90;;;;;;5024605;28;20215;-76
2021/01/23 04:17:37;;;;;;;0.60;0.60;;;4.00;1.00;;;;;;5028244;28;20296;-75
2021/01/23 04:20:06;;;;;;;0.60;0.60;;;3.80;1.00;;;;;;5028295;28;20346;-76
2021/01/23 04:22:34;;;;;;;0.73;0.70;;;3.70;1.00;;;;;;5018041;28;20244;-77
2021/01/23 04:25:01;;;;;;;0.80;0.80;;;3.60;1.00;;;;;;5027313;28;20227;-77
2021/01/23 04:27:28;;;;;;;0.70;0.70;;;3.30;1.00;;;;;;5022526;28;20305;-76
2021/01/23 04:29:56;;;;;;;0.73;0.73;;;3.30;1.00;;;;;;5026324;28;20277;-76
2021/01/23 04:32:23;;;;;;;0.80;0.70;;;3.30;1.00;;;;;;5022680;28;20630;-77
2021/01/23 04:34:50;;;;;;;0.60;0.60;;;3.30;1.00;;;;;;5027731;28;20844;-75
2021/01/23 04:37:17;;;;;;;0.80;0.80;;;3.20;1.00;;;;;;5024112;28;20587;-76
2021/01/23 04:39:45;;;;;;;0.90;0.90;;;3.20;1.00;;;;;;5023988;28;20223;-75
2021/01/23 04:42:12;;;;;;;0.80;0.80;;;3.10;1.00;;;;;;5013695;28;20211;-76
2021/01/23 04:44:40;;;;;;;1.02;0.90;;;3.10;1.00;;;;;;5017991;28;20222;-75
2021/01/23 04:47:08;;;;;;;0.77;0.77;;;3.10;1.00;;;;;;5027412;28;20320;-76
2021/01/23 04:49:35;;;;;;;0.80;0.80;;;3.00;1.00;;;;;;5027984;28;20255;-75
2021/01/23 04:52:05;;;;;;;0.70;0.70;;;3.00;1.00;;;;;;5026884;28;20230;-76
2021/01/23 04:54:34;;;;;;;1.00;0.70;;;3.10;1.00;;;;;;5027690;28;20222;-75
2021/01/23 04:57:01;;;;;;;1.08;0.70;;;3.00;1.00;;;;;;5029690;28;20239;-75
2021/01/23 04:59:30;;;;;;;1.08;0.80;;;2.90;1.00;;;;;;5027262;28;20284;-77
2021/01/23 05:02:17;;;;;;;0.80;0.80;;;2.90;1.00;;;;;;5023249;28;20214;-75
2021/01/23 05:04:46;;;;;;;0.80;0.80;;;2.80;1.00;;;;;;5022205;28;20309;-79
2021/01/23 05:07:25;;;;;;;1.00;0.93;;;2.80;1.00;;;;;;5024543;28;20598;-75
2021/01/23 05:09:52;;;;;;;1.25;0.93;;;2.90;1.00;;;;;;5028362;28;20203;-76
2021/01/23 05:12:41;;;;;;;0.75;0.75;;;2.90;1.00;;;;;;5012631;28;20225;-75
2021/01/23 05:15:11;;;;;;;0.80;0.80;;;2.80;1.00;;;;;;5011798;28;20222;-75
2021/01/23 05:17:49;;;;;;;1.00;0.90;;;2.80;1.00;;;;;;5020689;28;20230;-75
2021/01/23 05:20:31;;;;;;;1.52;1.10;;;2.70;1.00;;;;;;5021118;28;20614;-75
2021/01/23 05:22:59;;;;;;;0.77;0.77;;;2.70;1.00;;;;;;5027703;28;20971;-74
2021/01/23 05:25:27;;;;;;;1.13;1.00;;;2.70;1.00;;;;;;5019321;28;20234;-77
2021/01/23 05:27:54;;;;;;;3.95;1.63;;;2.60;1.00;;;;;;5027874;28;20301;-75
2021/01/23 05:30:23;;;;;;;1.00;1.00;;;2.60;1.00;;;;;;5018068;28;20205;-76
2021/01/23 05:33:05;;;;;;;3.00;1.08;;;2.60;1.00;;;;;;5027467;28;20213;-75
2021/01/23 05:35:34;;;;;;;1.13;1.02;;;2.70;1.00;;;;;;5019102;28;20250;-75
2021/01/23 05:38:18;;;;;;;1.02;1.02;;;2.60;1.00;;;;;;5026760;28;20213;-75
2021/01/23 05:40:45;;;;;;;1.10;1.00;;;2.70;1.00;;;;;;5020898;28;20306;-76
2021/01/23 05:43:12;;;;;;;1.00;0.90;;;2.70;1.00;;;;;;5017045;28;20681;-77
2021/01/23 05:45:47;;;;;;;1.05;0.80;;;2.60;1.00;;;;;;5019062;28;20238;-75
2021/01/23 05:48:16;;;;;;;0.90;0.90;;;2.60;1.00;;;;;;5026939;28;20201;-75
2021/01/23 05:50:43;;;;;;;0.90;0.90;;;2.50;2.80;;;;;;5022069;28;20726;-75
2021/01/23 05:53:11;;;;;;;1.15;1.10;;;2.50;10.20;;;;;;5024891;28;20218;-75
2021/01/23 05:55:38;;;;;;;1.80;1.10;;;2.50;15.70;;;;;;5026987;28;20298;-75
2021/01/23 05:58:05;;;;;;;1.20;1.05;;;2.50;15.20;;;;;;5027341;28;20214;-75
2021/01/23 06:00:33;;;;;;;1.35;1.25;;;2.60;21.70;;;;;;5019053;28;20234;-74
2021/01/23 06:03:00;;;;;;;1.30;1.20;;;2.60;5.90;;;;;;5024929;28;20217;-73
2021/01/23 06:05:29;;;;;;;1.13;1.02;;;2.60;3.40;;;;;;5023956;28;20265;-75
2021/01/23 06:07:56;;;;;;;1.20;1.08;;;2.60;11.40;;;;;;5024707;28;20215;-75
2021/01/23 06:10:42;;;;;;;1.40;1.30;;;2.70;6.90;;;;;;5015321;28;20221;-75
2021/01/23 06:13:42;;;;;;;1.20;1.10;;;2.70;1.00;;;;;;5026087;28;20206;-76
2021/01/23 06:16:37;;;;;;;1.52;1.30;;;2.80;1.00;;;;;;4981713;28;20235;-76
2021/01/23 06:19:39;;;;;;;1.30;1.10;;;2.70;1.00;;;;;;4965846;28;20247;-75
2021/01/23 06:22:08;;;;;;;1.30;1.20;;;2.70;1.00;;;;;;5020378;28;20237;-76
2021/01/23 06:24:54;;;;;;;1.10;1.00;;;2.60;1.00;;;;;;5021249;28;20224;-75
2021/01/23 06:27:46;;;;;;;0.98;0.98;;;2.50;1.00;;;;;;5020248;28;20243;-74
2021/01/23 06:30:30;;;;;;;1.35;1.13;;;2.40;1.00;;;;;;5018608;28;20300;-76
2021/01/23 06:32:57;;;;;;;1.50;1.40;;;2.50;1.00;;;;;;5024135;28;20214;-77
2021/01/23 06:35:24;;;;;;;1.42;1.30;;;2.50;1.00;;;;;;5022751;28;20451;-75
2021/01/23 06:38:12;;;;;;;1.20;1.20;;;2.50;1.00;;;;;;5026620;28;20222;-75
2021/01/23 06:40:40;;;;;;;1.35;1.25;;;2.50;1.00;;;;;;5019269;28;20217;-75
2021/01/23 06:43:07;;;;;;;1.40;1.30;;;2.50;1.00;;;;;;5021464;28;20206;-75
2021/01/23 06:45:37;;;;;;;1.15;1.10;;;2.70;1.00;;;;;;5019051;28;20328;-76
2021/01/23 06:48:05;;;;;;;1.67;1.45;;;2.60;1.00;;;;;;5016215;28;20214;-75
2021/01/23 06:50:38;;;;;;;1.20;1.10;;;2.60;1.00;;;;;;5009578;28;20272;-76
2021/01/23 06:53:08;;;;;;;1.95;1.50;;;2.70;1.00;;;;;;5017258;28;20697;-76
2021/01/23 06:55:50;;;;;;;1.80;1.42;;;2.60;1.00;;;;;;5027108;28;20648;-75
2021/01/23 06:58:20;;;;;;;2.08;1.30;;;2.70;1.00;;;;;;5019887;28;20223;-74
2021/01/23 07:00:49;;;;;;;1.60;1.50;;;2.70;1.00;;;;;;5029606;28;20671;-74
2021/01/23 07:03:17;;;;;;;1.40;1.30;;;2.70;1.00;;;;;;5024233;28;20218;-74
2021/01/23 07:05:49;;;;;;;1.45;1.35;;;2.50;1.00;;;;;;5028035;28;20230;-74
2021/01/23 07:08:25;;;;;;;1.80;1.67;;;2.50;1.00;;;;;;5022321;28;20210;-73
2021/01/23 07:11:21;;;;;;;1.50;1.40;;;2.60;1.00;;;;;;5019638;28;20300;-74
2021/01/23 07:13:59;;;;;;;1.55;1.33;;;2.60;1.00;;;;;;5026733;28;20218;-74
2021/01/23 07:16:28;;;;;;;1.70;1.60;;;2.60;1.00;;;;;;5019964;28;20237;-74
2021/01/23 07:18:56;;;;;;;2.40;1.38;;;2.60;1.00;;;;;;5020112;28;20232;-73
2021/01/23 07:21:25;;;;;;;1.52;1.42;;;2.60;1.00;;;;;;5022186;28;20257;-72
2021/01/23 07:23:57;;;;;;;2.45;2.00;;;2.70;1.00;;;;;;5025276;28;20844;-73
2021/01/23 07:26:25;;;;;;;1.70;1.30;;;2.80;1.00;;;;;;5027273;28;20508;-74
2021/01/23 07:28:54;;;;;;;1.92;1.73;;;2.90;1.00;;;;;;5030631;28;20210;-74
2021/01/23 07:31:23;;;;;;;2.22;1.83;;;2.80;1.00;;;;;;5024571;28;20226;-74
2021/01/23 07:33:51;;;;;;;2.20;2.00;;;2.90;1.00;;;;;;5020978;28;20228;-75
2021/01/23 07:36:29;;;;;;;2.47;2.35;;;2.80;1.00;;;;;;5021720;28;20267;-74
2021/01/23 07:38:58;;;;;;;2.85;2.30;;;2.70;1.00;;;;;;5028108;28;20706;-72
2021/01/23 07:41:29;;;;;;;1.73;1.63;;;2.70;1.00;;;;;;5022070;28;20230;-75
2021/01/23 07:43:58;;;;;;;1.92;1.77;;;2.70;1.00;;;;;;5021676;28;20593;-72
2021/01/23 07:46:25;;;;;;;3.60;1.83;;;2.80;1.00;;;;;;5018170;28;20128;-74
2021/01/23 07:48:52;;;;;;;2.20;1.95;;;2.70;1.00;;;;;;5029436;28;20203;-71
2021/01/23 07:51:23;;;;;;;2.40;2.20;;;2.70;1.00;;;;;;5021523;28;20820;-73
2021/01/23 07:54:18;;;;;;;2.70;2.33;;;2.70;1.00;;;;;;5025949;28;20206;-73
2021/01/23 07:56:56;;;;;;;2.22;2.05;;;2.80;1.00;;;;;;4993385;28;20304;-73
2021/01/23 07:59:41;;;;;;;2.00;1.75;;;3.00;1.00;;;;;;5022033;28;20313;-73
2021/01/23 08:02:08;;;;;;;3.35;2.25;;;3.10;1.00;;;;;;5025710;28;20426;-76
2021/01/23 08:04:37;;;;;;;3.25;2.58;;;3.20;1.00;;;;;;5020477;28;20591;-74
2021/01/23 08:07:21;;;;;;;2.30;2.00;;;3.20;1.00;;;;;;5021893;28;20238;-74
2021/01/23 08:12:42;;;;;;;3.70;2.10;;;3.10;1.00;;;;;;5084642;28;21077;-73
2021/01/23 08:15:11;;;;;;;2.83;2.63;;;3.10;1.00;;;;;;5055676;28;20210;-73
2021/01/23 08:17:44;;;;;;;2.88;2.67;;;3.10;1.00;;;;;;5054719;28;20213;-72
2021/01/23 08:20:13;;;;;;;2.20;2.00;;;3.20;1.00;;;;;;5051802;28;20206;-73
2021/01/23 08:23:03;;;;;;;2.50;1.90;;;3.10;1.00;;;;;;5054521;28;20223;-71
2021/01/23 08:25:32;;;;;;;2.60;2.15;;;3.10;1.00;;;;;;5049725;28;20325;-72
2021/01/23 08:28:00;;;;;;;2.80;2.10;;;3.10;1.00;;;;;;5053933;28;20237;-70
2021/01/23 08:30:28;;;;;;;2.15;1.95;;;3.00;1.00;;;;;;5047475;28;20952;-73
2021/01/23 08:32:55;;;;;;;3.45;2.28;;;3.00;1.00;;;;;;5053233;28;20229;-73
2021/01/23 08:35:24;;;;;;;2.05;1.75;;;2.90;1.00;;;;;;5055551;28;20942;-72
2021/01/23 08:37:52;;;;;;;2.67;2.45;;;3.00;1.00;;;;;;5055374;28;20217;-74
2021/01/23 08:40:21;;;;;;;2.42;2.22;;;3.20;1.00;;;;;;5054578;28;20221;-72
2021/01/23 08:42:48;;;;;;;2.50;2.20;;;3.30;1.00;;;;;;5051904;28;20291;-72
2021/01/23 08:45:18;;;;;;;2.95;2.10;;;3.30;1.00;;;;;;5050970;28;20314;-74
2021/01/23 08:47:46;;;;;;;2.78;2.13;;;3.30;1.00;;;;;;5051974;28;20308;-75
2021/01/23 08:50:14;;;;;;;3.00;2.70;;;3.30;1.00;;;;;;5053551;28;20213;-72
2021/01/23 08:52:41;;;;;;;3.60;3.00;;;3.10;1.00;;;;;;5053685;28;20291;-74
2021/01/23 08:55:09;;;;;;;3.15;2.00;;;3.10;1.00;;;;;;5054432;28;20215;-73
2021/01/23 08:57:37;;;;;;;3.53;2.30;;;3.00;1.00;;;;;;5057196;28;20210;-74
2021/01/23 09:00:07;;;;;;;2.25;2.05;;;3.10;1.00;;;;;;5053117;28;20231;-72
2021/01/23 09:02:35;;;;;;;3.22;2.80;;;3.30;1.00;;;;;;5051139;28;20215;-71
2021/01/23 09:05:04;;;;;;;2.80;2.40;;;3.20;1.00;;;;;;5058352;28;20720;-74
2021/01/23 09:07:31;;;;;;;2.83;2.35;;;3.30;1.00;;;;;;5061023;28;20231;-73
2021/01/23 09:09:58;;;;;;;2.83;2.47;;;3.50;1.00;;;;;;5053332;28;20238;-74
2021/01/23 09:12:29;;;;;;;2.80;2.10;;;3.60;1.00;;;;;;5057073;28;20275;-73
2021/01/23 09:14:56;;;;;;;3.47;2.40;;;3.60;1.00;;;;;;5058820;28;20239;-73
2021/01/23 09:17:23;;;;;;;2.45;2.25;;;3.80;1.00;;;;;;5052686;28;20311;-75
2021/01/23 09:19:51;;;;;;;3.35;2.90;;;3.90;1.00;;;;;;5050022;28;20224;-73
2021/01/23 09:22:18;;;;;;;2.60;2.40;;;3.90;1.00;;;;;;5050589;28;20489;-73
2021/01/23 09:24:45;;;;;;;3.83;2.90;;;4.10;1.00;;;;;;5051637;28;20248;-74
2021/01/23 09:27:13;;;;;;;2.47;2.10;;;4.30;99.90;;;;;;5040839;28;20317;-73
2021/01/23 09:29:40;;;;;;;4.05;2.63;;;4.40;99.90;;;;;;5038382;28;20280;-72
2021/01/23 09:32:07;;;;;;;3.10;2.50;;;4.50;17.90;;;;;;5035785;28;20531;-73
2021/01/23 09:34:35;;;;;;;2.40;2.20;;;4.60;1.00;;;;;;5037711;28;20635;-73
2021/01/23 09:37:04;;;;;;;3.05;2.70;;;4.80;99.90;;;;;;5038868;28;20795;-72
2021/01/23 09:39:32;;;;;;;2.85;2.65;;;5.00;1.00;;;;;;5036285;28;20223;-72
2021/01/23 09:41:59;;;;;;;3.58;3.28;;;5.10;99.90;;;;;;5034800;28;20491;-72
2021/01/23 09:44:26;;;;;;;3.13;2.85;;;5.30;1.00;;;;;;5039709;28;20220;-77
2021/01/23 09:46:53;;;;;;;5.95;3.90;;;5.40;99.90;;;;;;5036356;28;20865;-73
2021/01/23 09:49:21;;;;;;;4.80;4.40;;;5.40;99.90;;;;;;5036988;28;21397;-76
2021/01/23 09:51:49;;;;;;;4.35;3.40;;;5.00;27.60;;;;;;5037461;28;20250;-77
2021/01/23 09:54:17;;;;;;;2.50;2.30;;;4.90;1.00;;;;;;5038770;28;20212;-74
2021/01/23 09:57:00;;;;;;;2.30;1.77;;;4.80;99.90;;;;;;5036501;28;20626;-69
2021/01/23 09:59:27;;;;;;;2.28;1.80;;;5.10;1.00;;;;;;5035189;28;20470;-73
2021/01/23 10:01:54;;;;;;;2.00;1.90;;;5.10;99.90;;;;;;5034248;28;20298;-75
2021/01/23 10:04:21;;;;;;;2.10;1.90;;;5.20;1.00;;;;;;5033926;28;20215;-77
2021/01/23 10:06:48;;;;;;;1.50;1.40;;;5.10;99.90;;;;;;5033177;28;20278;-76
2021/01/23 10:09:17;;;;;;;2.55;1.88;;;4.90;1.00;;;;;;5036349;28;20265;-75
2021/01/23 10:11:44;;;;;;;2.47;1.50;;;4.70;1.00;;;;;;5031834;28;20272;-77
2021/01/23 10:14:11;;;;;;;1.90;1.80;;;4.60;99.90;;;;;;5043853;28;20298;-76
2021/01/23 10:16:39;;;;;;;1.95;1.67;;;4.70;1.00;;;;;;5036499;28;20283;-74
2021/01/23 10:19:07;;;;;;;1.55;1.45;;;4.60;99.90;;;;;;5034064;28;20682;-73
2021/01/23 10:21:34;;;;;;;4.47;3.08;;;4.50;1.00;;;;;;5045353;28;20216;-75
2021/01/23 10:24:01;;;;;;;4.50;2.67;;;4.70;99.90;;;;;;5038042;28;20258;-75
2021/01/23 10:26:30;;;;;;;2.13;1.80;;;4.90;1.00;;;;;;5041539;28;20742;-76
2021/01/23 10:28:57;;;;;;;2.15;2.03;;;4.90;91.30;;;;;;5044571;28;20637;-75
2021/01/23 10:31:24;;;;;;;1.70;1.60;;;5.10;99.90;;;;;;5037762;28;20230;-76
2021/01/23 10:33:51;;;;;;;1.67;1.58;;;5.00;99.90;;;;;;5043643;28;20212;-74
2021/01/23 10:36:19;;;;;;;2.00;1.90;;;5.00;99.90;;;;;;5042107;28;20234;-74
2021/01/23 10:38:46;;;;;;;2.20;1.60;;;5.40;1.00;;;;;;5044977;28;20225;-76
2021/01/23 10:41:13;;;;;;;1.60;1.50;;;5.50;99.90;;;;;;5043389;28;20207;-75
2021/01/23 10:43:41;;;;;;;1.85;1.70;;;5.40;99.90;;;;;;5035600;28;20475;-75
2021/01/23 10:46:09;;;;;;;1.55;1.45;;;5.70;1.00;;;;;;5043815;28;20269;-76
2021/01/23 10:48:37;;;;;;;2.43;1.80;;;6.10;29.10;;;;;;5038198;28;20215;-77
2021/01/23 10:51:05;;;;;;;1.70;1.43;;;6.10;13.80;;;;;;5038500;28;20585;-77
2021/01/23 10:53:34;;;;;;;2.30;1.70;;;6.70;1.00;;;;;;5044534;28;20461;-77
2021/01/23 10:56:01;;;;;;;2.65;1.40;;;7.40;99.90;;;;;;5033068;28;20495;-77
2021/01/23 10:58:28;;;;;;;2.47;1.80;;;8.30;99.90;;;;;;5044820;28;20206;-77
2021/01/23 11:00:57;;;;;;;3.73;1.60;;;7.80;99.90;;;;;;5042081;28;20478;-77
2021/01/23 11:03:24;;;;;;;2.07;1.70;;;8.20;99.90;;;;;;5043453;28;20464;-77
2021/01/23 11:05:51;;;;;;;2.17;1.80;;;8.70;1.00;;;;;;5040407;28;20491;-78
2021/01/23 11:08:19;;;;;;;1.80;1.63;;;9.10;1.00;;;;;;5038908;28;20495;-76
2021/01/23 11:10:46;;;;;;;1.50;1.40;;;9.00;1.00;;;;;;5039842;28;20890;-77
2021/01/23 11:13:13;;;;;;;1.97;1.67;;;9.50;1.00;;;;;;5041428;28;20476;-77
2021/01/23 11:15:40;;;;;;;3.40;2.13;;;9.80;1.00;;;;;;5040792;28;20504;-77
2021/01/23 11:18:08;;;;;;;2.27;1.40;;;11.20;99.90;;;;;;5043672;28;20515;-79
2021/01/23 11:20:35;;;;;;;1.60;1.50;;;11.40;99.90;;;;;;5043423;28;21572;-78
2021/01/23 11:23:02;;;;;;;1.47;1.37;;;10.80;99.90;;;;;;5031535;28;20464;-78
2021/01/23 11:25:30;;;;;;;4.23;1.50;;;10.90;99.90;;;;;;5045131;28;20485;-76
2021/01/23 11:27:57;;;;;;;2.30;1.60;;;10.90;99.90;;;;;;5032945;28;20469;-78
2021/01/23 11:30:25;;;;;;;1.80;1.23;;;11.00;99.90;;;;;;5035011;28;20467;-77
2021/01/23 11:32:52;;;;;;;3.90;1.53;;;10.70;99.90;;;;;;5044923;28;20523;-78
2021/01/23 11:35:22;;;;;;;1.60;1.50;;;10.70;99.90;;;;;;5036246;28;20516;-77
2021/01/23 11:37:50;;;;;;;1.70;1.30;;;10.40;99.90;;;;;;5037471;28;20459;-78
2021/01/23 11:40:17;;;;;;;1.70;1.20;;;9.90;99.90;;;;;;5033932;28;20486;-77
2021/01/23 11:42:44;;;;;;;2.70;1.43;;;9.50;99.90;;;;;;5038781;28;20547;-77
2021/01/23 11:45:12;;;;;;;1.50;1.40;;;9.20;99.90;;;;;;5047273;28;20457;-77
2021/01/23 11:47:41;;;;;;;1.40;1.30;;;9.20;99.90;;;;;;5034422;28;20635;-78
2021/01/23 11:50:10;;;;;;;1.93;1.60;;;9.50;99.90;;;;;;5045652;28;20484;-78
2021/01/23 11:52:38;;;;;;;1.57;1.20;;;8.90;99.90;;;;;;5045515;28;21324;-78
2021/01/23 11:55:07;;;;;;;1.90;1.80;;;8.60;99.90;;;;;;5045750;28;20474;-78
2021/01/23 11:57:35;;;;;;;2.63;1.40;;;8.10;1.00;;;;;;5047973;28;20484;-79
2021/01/23 12:00:03;;;;;;;1.60;1.50;;;7.70;1.00;;;;;;5044361;28;20517;-78
2021/01/23 12:02:30;;;;;;;1.63;1.53;;;7.40;1.00;;;;;;5046180;28;20564;-76
2021/01/23 12:04:58;;;;;;;2.97;1.50;;;7.50;99.90;;;;;;5037729;28;20516;-75
2021/01/23 12:07:25;;;;;;;2.47;1.20;;;7.40;99.90;;;;;;5045117;28;20487;-75
2021/01/23 12:09:53;;;;;;;3.00;1.17;;;7.40;92.00;;;;;;5040575;28;20488;-75
2021/01/23 12:12:20;;;;;;;2.03;1.30;;;7.30;20.90;;;;;;5032944;28;20529;-77
2021/01/23 12:14:47;;;;;;;1.73;1.57;;;7.30;99.90;;;;;;5038546;28;20467;-75
2021/01/23 12:17:14;;;;;;;1.98;1.30;;;7.20;99.90;;;;;;5051665;28;20490;-80
2021/01/23 12:19:42;;;;;;;1.87;1.50;;;7.30;99.90;;;;;;5050539;28;20296;-77
2021/01/23 12:22:10;;;;;;;2.70;1.50;;;7.40;99.90;;;;;;5048886;28;20524;-77
2021/01/23 12:24:38;;;;;;;2.20;1.60;;;7.40;99.40;;;;;;5059242;28;20461;-78
2021/01/23 12:27:07;;;;;;;1.30;1.20;;;7.00;7.20;;;;;;5051302;28;20485;-77
2021/01/23 12:29:34;;;;;;;3.47;1.37;;;6.70;99.90;;;;;;5046622;28;20474;-76
2021/01/23 12:32:05;;;;;;;6.43;1.47;;;6.50;99.90;;;;;;5051195;28;20483;-77
2021/01/23 12:34:32;;;;;;;1.40;1.30;;;6.60;1.00;;;;;;5045192;28;20449;-76
2021/01/23 12:36:59;;;;;;;1.93;1.40;;;6.60;1.00;;;;;;5067148;28;20576;-79
2021/01/23 12:39:26;;;;;;;2.37;1.50;;;6.50;1.00;;;;;;5051678;28;20442;-78
2021/01/23 12:41:54;;;;;;;4.03;1.30;;;6.50;1.00;;;;;;5048265;28;20460;-78
2021/01/23 12:44:23;;;;;;;2.30;1.60;;;6.70;1.00;;;;;;5048009;28;20476;-78
2021/01/23 12:46:51;;;;;;;1.70;1.50;;;7.00;1.00;;;;;;5068331;28;20494;-77
2021/01/23 12:49:19;;;;;;;2.23;1.90;;;7.00;1.00;;;;;;5052161;28;20457;-76
2021/01/23 12:51:46;;;;;;;2.17;1.97;;;7.00;1.00;;;;;;5050528;28;20531;-78
2021/01/23 12:54:13;;;;;;;5.37;1.80;;;7.20;1.00;;;;;;5052173;28;20453;-77
2021/01/23 12:56:41;;;;;;;3.23;2.10;;;7.40;1.00;;;;;;5053625;28;20555;-78
2021/01/23 12:59:08;;;;;;;2.60;2.23;;;7.40;99.90;;;;;;5042448;28;20452;-78
2021/01/23 13:01:39;;;;;;;2.57;2.37;;;7.50;99.90;;;;;;5042210;28;20468;-77
2021/01/23 13:04:07;;;;;;;2.40;2.20;;;7.40;99.90;;;;;;5030937;28;21013;-78
2021/01/23 13:06:34;;;;;;;3.40;2.90;;;7.70;99.90;;;;;;5031553;28;20481;-78
2021/01/23 13:09:05;;;;;;;2.90;2.60;;;7.90;99.90;;;;;;5030136;28;20445;-76
2021/01/23 13:11:33;;;;;;;2.63;2.43;;;8.20;99.90;;;;;;5049145;28;20478;-76
2021/01/23 13:14:01;;;;;;;3.17;2.00;;;8.60;89.80;;;;;;5045252;28;21231;-76
2021/01/23 13:16:29;;;;;;;1.87;1.73;;;8.60;1.00;;;;;;5034377;28;20815;-78
2021/01/23 13:18:57;;;;;;;2.10;2.00;;;8.70;1.00;;;;;;5038198;28;20959;-78
2021/01/23 13:21:24;;;;;;;2.10;1.80;;;8.70;1.00;;;;;;5046644;28;20469;-79